»·PEaware :: WAT169 KLAS-KSNA

WAT169 :: KLAS-KSNA

FLIGHT INFORMATION

Flight Status: Arrived
Operator:
Walker Air Transport
More flights by this operator :: More flights under this callsign
Pilot: Marty P. (27464)
Aircraft: BOEING 737-800
(B738)
More flights by this aircraft type
Origin: KLAS McCarran Intl
United States
Destination: KSNA John Wayne-Orange Co
United States
More flights between these airports :: More routes between these airports
Route: BOACH8 WHIGG FEYLA DSNEE4
File this flight plan on PilotEdge
Remarks:
Altitude:
(Current/Filed)
26,000ft
Speed:
(Current/Filed)
480kts
Departed: 06-Oct-20 09:10 PM
Arrived: 06-Oct-20 09:49 PM
Distance/Time
Traveled:
197nm/0:38
Distance/Time
To Go:
Arrived

Flight Plot

Page will automatically refresh every two minutes.

Flight plan parsing failed; only flown route is shown


Map Options




Map Legend


Flown Route
Filed Route
Departure Airport
Arrival Airport
Navaid (VOR, NDB)
Fix

Horizontal Profiles

Position Reports

Time Latitude Longitude Heading Altitude Ground
Speed
06-Oct-20 20:54 36.080231 -115.136076 47 2066ft 0kts
06-Oct-20 20:55 36.080231 -115.136077 47 2065ft 0kts
06-Oct-20 20:56 36.080231 -115.136077 47 2065ft 0kts
06-Oct-20 20:57 36.080231 -115.136077 47 2065ft 0kts
06-Oct-20 20:58 36.080231 -115.136077 47 2065ft 0kts
06-Oct-20 20:59 36.080231 -115.136077 47 2065ft 0kts
06-Oct-20 21:00 36.080231 -115.136077 47 2065ft 0kts
06-Oct-20 21:01 36.080231 -115.136077 47 2065ft 0kts
06-Oct-20 21:02 36.080037 -115.136338 47 2067ft 2kts
06-Oct-20 21:03 36.079704 -115.136882 111 2069ft 1kts
06-Oct-20 21:04 36.079778 -115.136995 135 2069ft 0kts
06-Oct-20 21:05 36.079632 -115.136803 133 2069ft 1kts
06-Oct-20 21:06 36.078965 -115.134558 93 2063ft 23kts
06-Oct-20 21:07 36.078278 -115.126883 90 2045ft 28kts
06-Oct-20 21:08 36.077437 -115.121471 140 2039ft 6kts
06-Oct-20 21:09 36.076416 -115.135619 270 2070ft 148kts
06-Oct-20 21:10 36.076952 -115.197705 270 4025ft 220kts
06-Oct-20 21:11 36.045957 -115.267458 205 6983ft 264kts
06-Oct-20 21:12 35.974529 -115.298665 194 7808ft 284kts
06-Oct-20 21:13 35.896691 -115.310532 185 11308ft 313kts
06-Oct-20 21:14 35.796985 -115.308396 175 13035ft 390kts
06-Oct-20 21:15 35.688014 -115.313629 201 16142ft 403kts
06-Oct-20 21:16 35.600634 -115.399976 227 18813ft 415kts
06-Oct-20 21:17 35.521388 -115.505939 228 21185ft 428kts
06-Oct-20 21:18 35.443114 -115.611244 228 24223ft 415kts
06-Oct-20 21:19 35.365851 -115.715276 228 26102ft 426kts
06-Oct-20 21:20 35.281141 -115.829122 227 26091ft 477kts
06-Oct-20 21:21 35.187084 -115.952826 225 26094ft 512kts
06-Oct-20 21:22 35.085795 -116.079732 225 26137ft 531kts
06-Oct-20 21:23 34.982447 -116.209485 225 26152ft 536kts
06-Oct-20 21:24 34.878497 -116.339729 225 26164ft 536kts
06-Oct-20 21:25 34.783593 -116.460256 226 25578ft 450kts
06-Oct-20 21:26 34.703411 -116.561821 223 25286ft 391kts
06-Oct-20 21:27 34.618703 -116.647873 218 23490ft 389kts
06-Oct-20 21:28 34.534991 -116.729710 218 20985ft 384kts
06-Oct-20 21:29 34.458088 -116.814423 223 19099ft 365kts
06-Oct-20 21:30 34.386571 -116.898697 223 17102ft 356kts
06-Oct-20 21:31 34.315883 -116.979872 222 16220ft 354kts
06-Oct-20 21:32 34.236844 -117.055846 210 14135ft 352kts
06-Oct-20 21:33 34.153977 -117.112181 203 12656ft 339kts
06-Oct-20 21:34 34.068577 -117.157654 203 12029ft 337kts
06-Oct-20 21:35 33.987655 -117.211445 223 11626ft 327kts
06-Oct-20 21:36 33.929192 -117.290310 229 10361ft 306kts
06-Oct-20 21:37 33.875204 -117.366493 229 9060ft 293kts
06-Oct-20 21:38 33.825147 -117.437495 234 8051ft 245kts
06-Oct-20 21:39 33.812267 -117.511519 287 7463ft 243kts
06-Oct-20 21:40 33.832342 -117.584306 289 6035ft 210kts
06-Oct-20 21:41 33.852012 -117.647689 291 5506ft 205kts
06-Oct-20 21:42 33.871842 -117.710286 291 4466ft 211kts
06-Oct-20 21:43 33.847244 -117.761123 204 3055ft 196kts
06-Oct-20 21:44 33.798574 -117.790779 207 2678ft 198kts
06-Oct-20 21:45 33.751465 -117.820750 207 1636ft 189kts
06-Oct-20 21:46 33.710879 -117.846523 207 738ft 149kts
06-Oct-20 21:47 33.674878 -117.869349 207 67ft 106kts
06-Oct-20 21:48 33.669198 -117.871635 122 66ft 1kts
06-Oct-20 21:49 33.671479 -117.868566 33 66ft 22kts
06-Oct-20 21:50 33.675011 -117.865091 117 66ft 0kts

Navigation Log

Ident Type
Flight plan parsing failed, navigation log unavailable